sensor_id;sensor_type;location;lat;lon;timestamp;P1;durP1;ratioP1;P2;durP2;ratioP2
15936;SDS011;9163;48.818;8.976;2023-06-10T00:02:13;7.37;;;6.30;;
15936;SDS011;9163;48.818;8.976;2023-06-10T00:04:42;7.93;;;6.83;;
15936;SDS011;9163;48.818;8.976;2023-06-10T00:07:09;6.80;;;6.20;;
15936;SDS011;9163;48.818;8.976;2023-06-10T00:09:36;8.23;;;6.57;;
15936;SDS011;9163;48.818;8.976;2023-06-10T00:12:06;9.13;;;6.70;;
15936;SDS011;9163;48.818;8.976;2023-06-10T00:14:36;7.43;;;6.73;;
15936;SDS011;9163;48.818;8.976;2023-06-10T00:17:04;7.97;;;6.97;;
15936;SDS011;9163;48.818;8.976;2023-06-10T00:19:35;9.73;;;6.60;;
15936;SDS011;9163;48.818;8.976;2023-06-10T00:22:02;8.53;;;6.43;;
15936;SDS011;9163;48.818;8.976;2023-06-10T00:24:30;7.40;;;6.60;;
15936;SDS011;9163;48.818;8.976;2023-06-10T00:26:57;8.43;;;7.10;;
15936;SDS011;9163;48.818;8.976;2023-06-10T00:29:26;7.73;;;6.87;;
15936;SDS011;9163;48.818;8.976;2023-06-10T00:31:53;7.70;;;6.70;;
15936;SDS011;9163;48.818;8.976;2023-06-10T00:34:23;8.20;;;7.10;;
15936;SDS011;9163;48.818;8.976;2023-06-10T00:36:50;8.10;;;7.07;;
15936;SDS011;9163;48.818;8.976;2023-06-10T00:39:17;7.77;;;6.80;;
15936;SDS011;9163;48.818;8.976;2023-06-10T00:41:44;7.67;;;6.87;;
15936;SDS011;9163;48.818;8.976;2023-06-10T00:44:11;10.33;;;6.77;;
15936;SDS011;9163;48.818;8.976;2023-06-10T00:46:40;7.73;;;6.93;;
15936;SDS011;9163;48.818;8.976;2023-06-10T00:49:07;8.33;;;7.07;;
15936;SDS011;9163;48.818;8.976;2023-06-10T00:51:35;8.17;;;6.80;;
15936;SDS011;9163;48.818;8.976;2023-06-10T00:54:02;8.37;;;6.53;;
15936;SDS011;9163;48.818;8.976;2023-06-10T00:56:31;8.27;;;6.57;;
15936;SDS011;9163;48.818;8.976;2023-06-10T00:59:00;8.00;;;6.97;;
15936;SDS011;9163;48.818;8.976;2023-06-10T01:01:28;9.20;;;7.10;;
15936;SDS011;9163;48.818;8.976;2023-06-10T01:03:57;8.57;;;7.00;;
15936;SDS011;9163;48.818;8.976;2023-06-10T01:06:28;7.50;;;6.70;;
15936;SDS011;9163;48.818;8.976;2023-06-10T01:09:02;7.67;;;6.90;;
15936;SDS011;9163;48.818;8.976;2023-06-10T01:11:41;9.03;;;7.00;;
15936;SDS011;9163;48.818;8.976;2023-06-10T01:14:14;8.37;;;7.20;;
15936;SDS011;9163;48.818;8.976;2023-06-10T01:16:42;7.87;;;6.97;;
15936;SDS011;9163;48.818;8.976;2023-06-10T01:19:13;7.47;;;6.70;;
15936;SDS011;9163;48.818;8.976;2023-06-10T01:21:44;8.17;;;6.97;;
15936;SDS011;9163;48.818;8.976;2023-06-10T01:24:14;10.00;;;7.23;;
15936;SDS011;9163;48.818;8.976;2023-06-10T01:26:43;8.03;;;6.57;;
15936;SDS011;9163;48.818;8.976;2023-06-10T01:29:14;7.73;;;7.00;;
15936;SDS011;9163;48.818;8.976;2023-06-10T01:31:48;7.33;;;6.57;;
15936;SDS011;9163;48.818;8.976;2023-06-10T01:34:18;7.57;;;6.73;;
15936;SDS011;9163;48.818;8.976;2023-06-10T01:36:50;8.20;;;6.47;;
15936;SDS011;9163;48.818;8.976;2023-06-10T01:39:20;7.80;;;7.00;;
15936;SDS011;9163;48.818;8.976;2023-06-10T01:41:50;7.60;;;6.90;;
15936;SDS011;9163;48.818;8.976;2023-06-10T01:44:19;7.53;;;6.73;;
15936;SDS011;9163;48.818;8.976;2023-06-10T01:46:46;7.57;;;6.80;;
15936;SDS011;9163;48.818;8.976;2023-06-10T01:49:14;8.37;;;7.37;;
15936;SDS011;9163;48.818;8.976;2023-06-10T01:51:41;8.33;;;6.67;;
15936;SDS011;9163;48.818;8.976;2023-06-10T01:54:10;8.33;;;7.30;;
15936;SDS011;9163;48.818;8.976;2023-06-10T01:56:37;7.43;;;6.73;;
15936;SDS011;9163;48.818;8.976;2023-06-10T01:59:04;7.43;;;6.53;;
15936;SDS011;9163;48.818;8.976;2023-06-10T02:01:32;8.67;;;6.70;;
15936;SDS011;9163;48.818;8.976;2023-06-10T02:04:00;7.70;;;6.70;;
15936;SDS011;9163;48.818;8.976;2023-06-10T02:06:27;8.33;;;6.80;;
15936;SDS011;9163;48.818;8.976;2023-06-10T02:08:54;7.90;;;6.80;;
15936;SDS011;9163;48.818;8.976;2023-06-10T02:11:23;7.37;;;6.30;;
15936;SDS011;9163;48.818;8.976;2023-06-10T02:13:52;7.50;;;6.70;;
15936;SDS011;9163;48.818;8.976;2023-06-10T02:16:19;7.10;;;6.27;;
15936;SDS011;9163;48.818;8.976;2023-06-10T02:18:46;7.63;;;6.80;;
15936;SDS011;9163;48.818;8.976;2023-06-10T02:21:15;7.17;;;6.47;;
15936;SDS011;9163;48.818;8.976;2023-06-10T02:23:42;7.93;;;7.13;;
15936;SDS011;9163;48.818;8.976;2023-06-10T02:26:09;7.40;;;6.70;;
15936;SDS011;9163;48.818;8.976;2023-06-10T02:28:38;7.43;;;6.60;;
15936;SDS011;9163;48.818;8.976;2023-06-10T02:31:08;8.43;;;6.33;;
15936;SDS011;9163;48.818;8.976;2023-06-10T02:33:36;6.90;;;6.20;;
15936;SDS011;9163;48.818;8.976;2023-06-10T02:36:05;7.03;;;6.37;;
15936;SDS011;9163;48.818;8.976;2023-06-10T02:38:32;7.00;;;6.23;;
15936;SDS011;9163;48.818;8.976;2023-06-10T02:41:00;7.63;;;5.83;;
15936;SDS011;9163;48.818;8.976;2023-06-10T02:43:27;6.33;;;5.73;;
15936;SDS011;9163;48.818;8.976;2023-06-10T02:45:56;7.50;;;6.07;;
15936;SDS011;9163;48.818;8.976;2023-06-10T02:48:23;7.50;;;6.00;;
15936;SDS011;9163;48.818;8.976;2023-06-10T02:50:51;8.87;;;6.27;;
15936;SDS011;9163;48.818;8.976;2023-06-10T02:53:18;9.13;;;5.90;;
15936;SDS011;9163;48.818;8.976;2023-06-10T02:55:45;7.63;;;6.10;;
15936;SDS011;9163;48.818;8.976;2023-06-10T02:58:12;6.50;;;5.90;;
15936;SDS011;9163;48.818;8.976;2023-06-10T03:00:40;7.17;;;6.10;;
15936;SDS011;9163;48.818;8.976;2023-06-10T03:03:10;7.00;;;6.10;;
15936;SDS011;9163;48.818;8.976;2023-06-10T03:05:37;6.60;;;5.97;;
15936;SDS011;9163;48.818;8.976;2023-06-10T03:08:04;6.03;;;5.43;;
15936;SDS011;9163;48.818;8.976;2023-06-10T03:10:31;6.50;;;5.80;;
15936;SDS011;9163;48.818;8.976;2023-06-10T03:12:59;6.40;;;5.80;;
15936;SDS011;9163;48.818;8.976;2023-06-10T03:15:26;6.07;;;5.47;;
15936;SDS011;9163;48.818;8.976;2023-06-10T03:17:54;6.80;;;6.10;;
15936;SDS011;9163;48.818;8.976;2023-06-10T03:20:23;6.80;;;6.13;;
15936;SDS011;9163;48.818;8.976;2023-06-10T03:22:51;9.03;;;6.20;;
15936;SDS011;9163;48.818;8.976;2023-06-10T03:25:18;7.20;;;6.50;;
15936;SDS011;9163;48.818;8.976;2023-06-10T03:27:46;6.87;;;6.17;;
15936;SDS011;9163;48.818;8.976;2023-06-10T03:30:13;6.93;;;6.27;;
15936;SDS011;9163;48.818;8.976;2023-06-10T03:32:41;7.03;;;6.40;;
15936;SDS011;9163;48.818;8.976;2023-06-10T03:35:08;7.63;;;6.57;;
15936;SDS011;9163;48.818;8.976;2023-06-10T03:37:37;7.60;;;6.53;;
15936;SDS011;9163;48.818;8.976;2023-06-10T03:40:05;6.80;;;6.10;;
15936;SDS011;9163;48.818;8.976;2023-06-10T03:42:34;7.03;;;6.30;;
15936;SDS011;9163;48.818;8.976;2023-06-10T03:45:01;7.97;;;7.13;;
15936;SDS011;9163;48.818;8.976;2023-06-10T03:47:32;8.37;;;6.60;;
15936;SDS011;9163;48.818;8.976;2023-06-10T03:50:01;8.20;;;6.47;;
15936;SDS011;9163;48.818;8.976;2023-06-10T03:52:28;6.93;;;6.23;;
15936;SDS011;9163;48.818;8.976;2023-06-10T03:54:57;6.87;;;6.20;;
15936;SDS011;9163;48.818;8.976;2023-06-10T03:57:24;7.10;;;6.40;;
15936;SDS011;9163;48.818;8.976;2023-06-10T03:59:52;7.07;;;6.37;;
15936;SDS011;9163;48.818;8.976;2023-06-10T04:02:19;8.03;;;6.40;;
15936;SDS011;9163;48.818;8.976;2023-06-10T04:04:46;7.40;;;6.60;;
15936;SDS011;9163;48.818;8.976;2023-06-10T04:07:14;8.23;;;6.53;;
15936;SDS011;9163;48.818;8.976;2023-06-10T04:09:41;8.47;;;6.87;;
15936;SDS011;9163;48.818;8.976;2023-06-10T04:12:10;7.03;;;6.30;;
15936;SDS011;9163;48.818;8.976;2023-06-10T04:14:37;7.30;;;6.60;;
15936;SDS011;9163;48.818;8.976;2023-06-10T04:17:04;6.83;;;6.13;;
15936;SDS011;9163;48.818;8.976;2023-06-10T04:19:33;6.90;;;6.20;;
15936;SDS011;9163;48.818;8.976;2023-06-10T04:22:00;7.47;;;6.70;;
15936;SDS011;9163;48.818;8.976;2023-06-10T04:24:27;6.33;;;5.60;;
15936;SDS011;9163;48.818;8.976;2023-06-10T04:26:55;6.87;;;6.23;;
15936;SDS011;9163;48.818;8.976;2023-06-10T04:29:23;7.07;;;6.17;;
15936;SDS011;9163;48.818;8.976;2023-06-10T04:31:51;8.90;;;6.37;;
15936;SDS011;9163;48.818;8.976;2023-06-10T04:34:18;6.73;;;6.03;;
15936;SDS011;9163;48.818;8.976;2023-06-10T04:36:45;7.67;;;6.87;;
15936;SDS011;9163;48.818;8.976;2023-06-10T04:39:13;9.13;;;7.30;;
15936;SDS011;9163;48.818;8.976;2023-06-10T04:41:42;8.33;;;6.57;;
15936;SDS011;9163;48.818;8.976;2023-06-10T04:44:09;7.60;;;6.83;;
15936;SDS011;9163;48.818;8.976;2023-06-10T04:46:38;7.30;;;6.60;;
15936;SDS011;9163;48.818;8.976;2023-06-10T04:49:06;8.17;;;6.63;;
15936;SDS011;9163;48.818;8.976;2023-06-10T04:51:33;7.80;;;6.50;;
15936;SDS011;9163;48.818;8.976;2023-06-10T04:54:01;7.13;;;6.43;;
15936;SDS011;9163;48.818;8.976;2023-06-10T04:56:29;6.67;;;6.00;;
15936;SDS011;9163;48.818;8.976;2023-06-10T04:58:56;6.73;;;5.63;;
15936;SDS011;9163;48.818;8.976;2023-06-10T05:01:23;6.57;;;5.90;;
15936;SDS011;9163;48.818;8.976;2023-06-10T05:03:52;6.60;;;5.90;;
15936;SDS011;9163;48.818;8.976;2023-06-10T05:06:19;6.53;;;5.83;;
15936;SDS011;9163;48.818;8.976;2023-06-10T05:08:46;7.73;;;6.00;;
15936;SDS011;9163;48.818;8.976;2023-06-10T05:11:14;7.33;;;6.00;;
15936;SDS011;9163;48.818;8.976;2023-06-10T05:13:41;5.87;;;5.27;;
15936;SDS011;9163;48.818;8.976;2023-06-10T05:16:09;5.63;;;5.13;;
15936;SDS011;9163;48.818;8.976;2023-06-10T05:18:36;5.90;;;5.30;;
15936;SDS011;9163;48.818;8.976;2023-06-10T05:21:05;5.97;;;4.93;;
15936;SDS011;9163;48.818;8.976;2023-06-10T05:23:32;6.67;;;5.47;;
15936;SDS011;9163;48.818;8.976;2023-06-10T05:26:00;6.60;;;5.03;;
15936;SDS011;9163;48.818;8.976;2023-06-10T05:28:27;6.03;;;5.43;;
15936;SDS011;9163;48.818;8.976;2023-06-10T05:30:54;6.17;;;5.57;;
15936;SDS011;9163;48.818;8.976;2023-06-10T05:33:21;5.80;;;5.20;;
15936;SDS011;9163;48.818;8.976;2023-06-10T05:35:49;6.97;;;5.23;;
15936;SDS011;9163;48.818;8.976;2023-06-10T05:38:17;7.13;;;5.33;;
15936;SDS011;9163;48.818;8.976;2023-06-10T05:40:45;5.80;;;5.20;;
15936;SDS011;9163;48.818;8.976;2023-06-10T05:43:12;5.43;;;4.83;;
15936;SDS011;9163;48.818;8.976;2023-06-10T05:45:42;5.27;;;4.77;;
15936;SDS011;9163;48.818;8.976;2023-06-10T05:48:09;6.07;;;4.83;;
15936;SDS011;9163;48.818;8.976;2023-06-10T05:50:36;5.70;;;5.20;;
15936;SDS011;9163;48.818;8.976;2023-06-10T05:53:05;6.30;;;4.77;;
15936;SDS011;9163;48.818;8.976;2023-06-10T05:55:41;5.90;;;5.20;;
15936;SDS011;9163;48.818;8.976;2023-06-10T05:58:08;5.20;;;4.57;;
15936;SDS011;9163;48.818;8.976;2023-06-10T06:00:37;5.60;;;5.00;;
15936;SDS011;9163;48.818;8.976;2023-06-10T06:03:05;5.87;;;5.27;;
15936;SDS011;9163;48.818;8.976;2023-06-10T06:05:33;6.17;;;5.57;;
15936;SDS011;9163;48.818;8.976;2023-06-10T06:08:03;6.27;;;5.67;;
15936;SDS011;9163;48.818;8.976;2023-06-10T06:10:30;6.10;;;5.50;;
15936;SDS011;9163;48.818;8.976;2023-06-10T06:12:59;6.40;;;5.80;;
15936;SDS011;9163;48.818;8.976;2023-06-10T06:15:27;6.60;;;6.00;;
15936;SDS011;9163;48.818;8.976;2023-06-10T06:17:55;6.93;;;6.20;;
15936;SDS011;9163;48.818;8.976;2023-06-10T06:20:22;7.50;;;5.40;;
15936;SDS011;9163;48.818;8.976;2023-06-10T06:22:49;6.27;;;5.73;;
15936;SDS011;9163;48.818;8.976;2023-06-10T06:25:16;7.17;;;5.53;;
15936;SDS011;9163;48.818;8.976;2023-06-10T06:27:44;6.43;;;5.57;;
15936;SDS011;9163;48.818;8.976;2023-06-10T06:30:13;7.20;;;5.60;;
15936;SDS011;9163;48.818;8.976;2023-06-10T06:32:40;6.53;;;5.93;;
15936;SDS011;9163;48.818;8.976;2023-06-10T06:35:07;7.00;;;5.77;;
15936;SDS011;9163;48.818;8.976;2023-06-10T06:37:35;8.00;;;6.03;;
15936;SDS011;9163;48.818;8.976;2023-06-10T06:40:03;7.00;;;6.10;;
15936;SDS011;9163;48.818;8.976;2023-06-10T06:42:31;6.97;;;6.00;;
15936;SDS011;9163;48.818;8.976;2023-06-10T06:44:58;6.77;;;5.90;;
15936;SDS011;9163;48.818;8.976;2023-06-10T06:47:26;9.53;;;6.80;;
15936;SDS011;9163;48.818;8.976;2023-06-10T06:49:53;6.50;;;5.90;;
15936;SDS011;9163;48.818;8.976;2023-06-10T06:52:21;8.40;;;6.03;;
15936;SDS011;9163;48.818;8.976;2023-06-10T06:54:49;6.83;;;6.07;;
15936;SDS011;9163;48.818;8.976;2023-06-10T06:57:16;7.97;;;5.80;;
15936;SDS011;9163;48.818;8.976;2023-06-10T06:59:43;6.40;;;5.80;;
15936;SDS011;9163;48.818;8.976;2023-06-10T07:02:10;6.70;;;5.97;;
15936;SDS011;9163;48.818;8.976;2023-06-10T07:04:39;6.60;;;5.93;;
15936;SDS011;9163;48.818;8.976;2023-06-10T07:07:07;6.83;;;6.23;;
15936;SDS011;9163;48.818;8.976;2023-06-10T07:09:35;6.83;;;6.10;;
15936;SDS011;9163;48.818;8.976;2023-06-10T07:12:02;7.33;;;6.47;;
15936;SDS011;9163;48.818;8.976;2023-06-10T07:14:31;6.18;;;5.57;;
15936;SDS011;9163;48.818;8.976;2023-06-10T07:16:58;7.03;;;5.47;;
15936;SDS011;9163;48.818;8.976;2023-06-10T07:19:25;7.07;;;5.63;;
15936;SDS011;9163;48.818;8.976;2023-06-10T07:21:54;6.67;;;6.00;;
15936;SDS011;9163;48.818;8.976;2023-06-10T07:24:21;5.63;;;5.10;;
15936;SDS011;9163;48.818;8.976;2023-06-10T07:26:48;6.80;;;6.13;;
15936;SDS011;9163;48.818;8.976;2023-06-10T07:29:15;7.90;;;5.82;;
15936;SDS011;9163;48.818;8.976;2023-06-10T07:31:43;7.53;;;5.50;;
15936;SDS011;9163;48.818;8.976;2023-06-10T07:34:10;6.53;;;5.93;;
15936;SDS011;9163;48.818;8.976;2023-06-10T07:36:37;5.97;;;5.30;;
15936;SDS011;9163;48.818;8.976;2023-06-10T07:39:06;7.90;;;5.43;;
15936;SDS011;9163;48.818;8.976;2023-06-10T07:41:33;6.55;;;5.50;;
15936;SDS011;9163;48.818;8.976;2023-06-10T07:44:00;5.97;;;5.38;;
15936;SDS011;9163;48.818;8.976;2023-06-10T07:46:28;5.88;;;5.32;;
15936;SDS011;9163;48.818;8.976;2023-06-10T07:48:55;5.57;;;4.97;;
15936;SDS011;9163;48.818;8.976;2023-06-10T07:51:22;4.72;;;4.32;;
15936;SDS011;9163;48.818;8.976;2023-06-10T07:53:49;5.75;;;4.50;;
15936;SDS011;9163;48.818;8.976;2023-06-10T07:56:18;6.28;;;4.40;;
15936;SDS011;9163;48.818;8.976;2023-06-10T07:58:47;5.00;;;4.47;;
15936;SDS011;9163;48.818;8.976;2023-06-10T08:01:14;5.43;;;4.90;;
15936;SDS011;9163;48.818;8.976;2023-06-10T08:03:42;5.18;;;4.20;;
15936;SDS011;9163;48.818;8.976;2023-06-10T08:06:09;5.80;;;5.20;;
15936;SDS011;9163;48.818;8.976;2023-06-10T08:08:37;5.40;;;4.90;;
15936;SDS011;9163;48.818;8.976;2023-06-10T08:11:07;5.55;;;5.05;;
15936;SDS011;9163;48.818;8.976;2023-06-10T08:13:36;5.85;;;5.25;;
15936;SDS011;9163;48.818;8.976;2023-06-10T08:16:03;6.00;;;5.22;;
15936;SDS011;9163;48.818;8.976;2023-06-10T08:18:31;7.57;;;5.05;;
15936;SDS011;9163;48.818;8.976;2023-06-10T08:20:59;5.68;;;5.18;;
15936;SDS011;9163;48.818;8.976;2023-06-10T08:23:26;5.60;;;5.10;;
15936;SDS011;9163;48.818;8.976;2023-06-10T08:25:53;5.15;;;4.75;;
15936;SDS011;9163;48.818;8.976;2023-06-10T08:28:20;6.03;;;4.72;;
15936;SDS011;9163;48.818;8.976;2023-06-10T08:30:49;5.70;;;5.20;;
15936;SDS011;9163;48.818;8.976;2023-06-10T08:33:16;5.25;;;4.80;;
15936;SDS011;9163;48.818;8.976;2023-06-10T08:35:44;5.47;;;4.97;;
15936;SDS011;9163;48.818;8.976;2023-06-10T08:38:11;5.18;;;4.68;;
15936;SDS011;9163;48.818;8.976;2023-06-10T08:40:38;5.35;;;4.88;;
15936;SDS011;9163;48.818;8.976;2023-06-10T08:43:06;6.82;;;4.70;;
15936;SDS011;9163;48.818;8.976;2023-06-10T08:45:34;5.47;;;4.85;;
15936;SDS011;9163;48.818;8.976;2023-06-10T08:48:04;5.93;;;5.32;;
15936;SDS011;9163;48.818;8.976;2023-06-10T08:50:33;5.05;;;4.55;;
15936;SDS011;9163;48.818;8.976;2023-06-10T08:53:02;5.38;;;4.88;;
15936;SDS011;9163;48.818;8.976;2023-06-10T08:55:32;5.30;;;4.85;;
15936;SDS011;9163;48.818;8.976;2023-06-10T08:58:00;5.38;;;4.85;;
15936;SDS011;9163;48.818;8.976;2023-06-10T09:00:28;5.28;;;4.78;;
15936;SDS011;9163;48.818;8.976;2023-06-10T09:02:56;5.63;;;4.50;;
15936;SDS011;9163;48.818;8.976;2023-06-10T09:05:26;6.18;;;4.78;;
15936;SDS011;9163;48.818;8.976;2023-06-10T09:07:54;5.63;;;4.75;;
15936;SDS011;9163;48.818;8.976;2023-06-10T09:10:23;5.05;;;4.53;;
15936;SDS011;9163;48.818;8.976;2023-06-10T09:12:51;5.45;;;4.95;;
15936;SDS011;9163;48.818;8.976;2023-06-10T09:15:18;5.47;;;5.00;;
15936;SDS011;9163;48.818;8.976;2023-06-10T09:17:46;5.43;;;4.93;;
15936;SDS011;9163;48.818;8.976;2023-06-10T09:20:14;4.90;;;4.50;;
15936;SDS011;9163;48.818;8.976;2023-06-10T09:22:42;5.15;;;4.65;;
15936;SDS011;9163;48.818;8.976;2023-06-10T09:25:10;5.72;;;5.13;;
15936;SDS011;9163;48.818;8.976;2023-06-10T09:27:44;5.97;;;5.38;;
15936;SDS011;9163;48.818;8.976;2023-06-10T09:30:26;5.32;;;4.82;;
15936;SDS011;9163;48.818;8.976;2023-06-10T09:32:54;7.00;;;5.13;;
15936;SDS011;9163;48.818;8.976;2023-06-10T09:35:22;6.28;;;5.15;;
15936;SDS011;9163;48.818;8.976;2023-06-10T09:37:52;5.80;;;4.70;;
15936;SDS011;9163;48.818;8.976;2023-06-10T09:40:20;4.90;;;4.30;;
15936;SDS011;9163;48.818;8.976;2023-06-10T09:42:52;5.72;;;4.57;;
15936;SDS011;9163;48.818;8.976;2023-06-10T09:45:20;5.97;;;5.30;;
15936;SDS011;9163;48.818;8.976;2023-06-10T09:47:51;5.72;;;5.22;;
15936;SDS011;9163;48.818;8.976;2023-06-10T09:50:19;6.32;;;4.60;;
15936;SDS011;9163;48.818;8.976;2023-06-10T09:52:46;6.00;;;5.28;;
15936;SDS011;9163;48.818;8.976;2023-06-10T09:55:15;5.40;;;4.90;;
15936;SDS011;9163;48.818;8.976;2023-06-10T09:57:43;5.22;;;4.72;;
15936;SDS011;9163;48.818;8.976;2023-06-10T10:00:13;5.57;;;4.95;;
15936;SDS011;9163;48.818;8.976;2023-06-10T10:02:45;5.75;;;4.85;;
15936;SDS011;9163;48.818;8.976;2023-06-10T10:05:14;5.25;;;4.72;;
15936;SDS011;9163;48.818;8.976;2023-06-10T10:07:41;5.28;;;3.88;;
15936;SDS011;9163;48.818;8.976;2023-06-10T10:10:09;5.10;;;4.20;;
15936;SDS011;9163;48.818;8.976;2023-06-10T10:12:39;5.07;;;4.50;;
15936;SDS011;9163;48.818;8.976;2023-06-10T10:15:07;5.78;;;4.70;;
15936;SDS011;9163;48.818;8.976;2023-06-10T10:17:36;5.82;;;4.38;;
15936;SDS011;9163;48.818;8.976;2023-06-10T10:20:12;4.70;;;4.30;;
15936;SDS011;9163;48.818;8.976;2023-06-10T10:22:43;4.57;;;4.10;;
15936;SDS011;9163;48.818;8.976;2023-06-10T10:25:13;4.63;;;4.20;;
15936;SDS011;9163;48.818;8.976;2023-06-10T10:27:47;6.90;;;4.35;;
15936;SDS011;9163;48.818;8.976;2023-06-10T10:30:19;5.18;;;4.78;;
15936;SDS011;9163;48.818;8.976;2023-06-10T10:32:51;4.78;;;4.25;;
15936;SDS011;9163;48.818;8.976;2023-06-10T10:35:23;4.93;;;4.38;;
15936;SDS011;9163;48.818;8.976;2023-06-10T10:37:52;4.65;;;4.25;;
15936;SDS011;9163;48.818;8.976;2023-06-10T10:40:20;4.38;;;3.97;;
15936;SDS011;9163;48.818;8.976;2023-06-10T10:42:50;4.78;;;4.38;;
15936;SDS011;9163;48.818;8.976;2023-06-10T10:45:18;5.20;;;4.38;;
15936;SDS011;9163;48.818;8.976;2023-06-10T10:47:46;4.43;;;4.05;;
15936;SDS011;9163;48.818;8.976;2023-06-10T10:50:18;6.15;;;4.05;;
15936;SDS011;9163;48.818;8.976;2023-06-10T10:52:51;5.05;;;4.05;;
15936;SDS011;9163;48.818;8.976;2023-06-10T10:55:20;4.50;;;4.10;;
15936;SDS011;9163;48.818;8.976;2023-06-10T10:57:55;4.75;;;4.25;;
15936;SDS011;9163;48.818;8.976;2023-06-10T11:00:30;4.93;;;4.20;;
15936;SDS011;9163;48.818;8.976;2023-06-10T11:02:58;4.60;;;3.75;;
15936;SDS011;9163;48.818;8.976;2023-06-10T11:05:35;5.68;;;4.30;;
15936;SDS011;9163;48.818;8.976;2023-06-10T11:08:04;5.68;;;4.20;;
15936;SDS011;9163;48.818;8.976;2023-06-10T11:10:33;4.35;;;4.03;;
15936;SDS011;9163;48.818;8.976;2023-06-10T11:13:13;5.35;;;4.15;;
15936;SDS011;9163;48.818;8.976;2023-06-10T11:15:43;4.53;;;4.20;;
15936;SDS011;9163;48.818;8.976;2023-06-10T11:18:13;4.45;;;4.05;;
15936;SDS011;9163;48.818;8.976;2023-06-10T11:20:41;4.78;;;4.28;;
15936;SDS011;9163;48.818;8.976;2023-06-10T11:26:14;4.53;;;4.18;;
15936;SDS011;9163;48.818;8.976;2023-06-10T11:31:42;4.75;;;3.97;;
15936;SDS011;9163;48.818;8.976;2023-06-10T11:34:11;4.43;;;4.03;;
15936;SDS011;9163;48.818;8.976;2023-06-10T11:36:40;4.50;;;4.07;;
15936;SDS011;9163;48.818;8.976;2023-06-10T11:39:10;4.22;;;3.92;;
15936;SDS011;9163;48.818;8.976;2023-06-10T11:41:38;4.40;;;3.95;;
15936;SDS011;9163;48.818;8.976;2023-06-10T11:44:11;4.38;;;4.07;;
15936;SDS011;9163;48.818;8.976;2023-06-10T11:46:39;4.20;;;3.80;;
15936;SDS011;9163;48.818;8.976;2023-06-10T11:49:08;4.50;;;4.10;;
15936;SDS011;9163;48.818;8.976;2023-06-10T11:51:36;6.88;;;3.90;;
15936;SDS011;9163;48.818;8.976;2023-06-10T11:54:05;5.18;;;3.92;;
15936;SDS011;9163;48.818;8.976;2023-06-10T11:56:34;3.85;;;3.53;;
15936;SDS011;9163;48.818;8.976;2023-06-10T11:59:04;4.05;;;3.75;;
15936;SDS011;9163;48.818;8.976;2023-06-10T12:01:35;4.45;;;3.63;;
15936;SDS011;9163;48.818;8.976;2023-06-10T12:04:03;3.78;;;3.38;;
15936;SDS011;9163;48.818;8.976;2023-06-10T12:06:38;4.85;;;3.85;;
15936;SDS011;9163;48.818;8.976;2023-06-10T12:09:07;4.18;;;3.88;;
15936;SDS011;9163;48.818;8.976;2023-06-10T12:11:39;5.30;;;4.10;;
15936;SDS011;9163;48.818;8.976;2023-06-10T12:14:06;3.95;;;3.65;;
15936;SDS011;9163;48.818;8.976;2023-06-10T12:16:35;4.13;;;3.83;;
15936;SDS011;9163;48.818;8.976;2023-06-10T12:19:02;4.22;;;3.70;;
15936;SDS011;9163;48.818;8.976;2023-06-10T12:21:31;4.93;;;3.92;;
15936;SDS011;9163;48.818;8.976;2023-06-10T12:24:00;4.72;;;3.58;;
15936;SDS011;9163;48.818;8.976;2023-06-10T12:26:38;3.67;;;3.38;;
15936;SDS011;9163;48.818;8.976;2023-06-10T12:29:19;3.60;;;3.30;;
15936;SDS011;9163;48.818;8.976;2023-06-10T12:31:55;4.13;;;3.67;;
15936;SDS011;9163;48.818;8.976;2023-06-10T12:34:28;4.00;;;3.60;;
15936;SDS011;9163;48.818;8.976;2023-06-10T12:36:59;3.92;;;3.63;;
15936;SDS011;9163;48.818;8.976;2023-06-10T12:39:29;4.20;;;3.90;;
15936;SDS011;9163;48.818;8.976;2023-06-10T12:41:57;4.40;;;4.00;;
15936;SDS011;9163;48.818;8.976;2023-06-10T12:44:28;3.92;;;3.63;;
15936;SDS011;9163;48.818;8.976;2023-06-10T12:46:58;4.18;;;3.78;;
15936;SDS011;9163;48.818;8.976;2023-06-10T12:49:25;4.60;;;3.83;;
15936;SDS011;9163;48.818;8.976;2023-06-10T12:51:53;5.03;;;3.63;;
15936;SDS011;9163;48.818;8.976;2023-06-10T12:54:20;3.88;;;3.58;;
15936;SDS011;9163;48.818;8.976;2023-06-10T12:56:48;4.00;;;3.70;;
15936;SDS011;9163;48.818;8.976;2023-06-10T12:59:15;3.92;;;3.63;;
15936;SDS011;9163;48.818;8.976;2023-06-10T13:01:42;4.22;;;3.85;;
15936;SDS011;9163;48.818;8.976;2023-06-10T13:04:11;4.15;;;3.75;;
15936;SDS011;9163;48.818;8.976;2023-06-10T13:06:38;4.05;;;3.65;;
15936;SDS011;9163;48.818;8.976;2023-06-10T13:09:05;3.78;;;3.47;;
15936;SDS011;9163;48.818;8.976;2023-06-10T13:11:36;4.40;;;4.00;;
15936;SDS011;9163;48.818;8.976;2023-06-10T13:14:04;3.92;;;3.35;;
15936;SDS011;9163;48.818;8.976;2023-06-10T13:16:31;4.35;;;3.95;;
15936;SDS011;9163;48.818;8.976;2023-06-10T13:18:59;3.72;;;3.40;;
15936;SDS011;9163;48.818;8.976;2023-06-10T13:21:29;3.90;;;3.60;;
15936;SDS011;9163;48.818;8.976;2023-06-10T13:23:56;3.67;;;3.38;;
15936;SDS011;9163;48.818;8.976;2023-06-10T13:26:24;4.03;;;3.63;;
15936;SDS011;9163;48.818;8.976;2023-06-10T13:28:51;4.15;;;3.55;;
15936;SDS011;9163;48.818;8.976;2023-06-10T13:31:18;3.90;;;3.60;;
15936;SDS011;9163;48.818;8.976;2023-06-10T13:33:46;3.42;;;3.13;;
15936;SDS011;9163;48.818;8.976;2023-06-10T13:36:13;4.35;;;3.70;;
15936;SDS011;9163;48.818;8.976;2023-06-10T13:38:42;4.07;;;3.25;;
15936;SDS011;9163;48.818;8.976;2023-06-10T13:41:10;3.42;;;3.13;;
15936;SDS011;9163;48.818;8.976;2023-06-10T13:43:38;3.63;;;3.20;;
15936;SDS011;9163;48.818;8.976;2023-06-10T13:46:05;3.38;;;3.17;;
15936;SDS011;9163;48.818;8.976;2023-06-10T13:48:32;3.65;;;3.35;;
15936;SDS011;9163;48.818;8.976;2023-06-10T13:51:00;3.47;;;3.17;;
15936;SDS011;9163;48.818;8.976;2023-06-10T13:53:28;3.88;;;3.55;;
15936;SDS011;9163;48.818;8.976;2023-06-10T13:55:56;4.20;;;3.42;;
15936;SDS011;9163;48.818;8.976;2023-06-10T13:58:23;3.92;;;3.50;;
15936;SDS011;9163;48.818;8.976;2023-06-10T14:00:51;3.20;;;3.00;;
15936;SDS011;9163;48.818;8.976;2023-06-10T14:03:18;3.53;;;3.00;;
15936;SDS011;9163;48.818;8.976;2023-06-10T14:05:45;3.40;;;3.10;;
15936;SDS011;9163;48.818;8.976;2023-06-10T14:08:12;3.00;;;2.70;;
15936;SDS011;9163;48.818;8.976;2023-06-10T14:10:40;3.35;;;3.10;;
15936;SDS011;9163;48.818;8.976;2023-06-10T14:13:08;3.10;;;2.80;;
15936;SDS011;9163;48.818;8.976;2023-06-10T14:15:36;3.50;;;3.20;;
15936;SDS011;9163;48.818;8.976;2023-06-10T14:18:03;3.25;;;3.00;;
15936;SDS011;9163;48.818;8.976;2023-06-10T14:20:31;3.47;;;3.17;;
15936;SDS011;9163;48.818;8.976;2023-06-10T14:22:58;3.72;;;3.08;;
15936;SDS011;9163;48.818;8.976;2023-06-10T14:25:25;3.78;;;3.25;;
15936;SDS011;9163;48.818;8.976;2023-06-10T14:27:52;5.38;;;3.20;;
15936;SDS011;9163;48.818;8.976;2023-06-10T14:30:21;3.67;;;3.38;;
15936;SDS011;9163;48.818;8.976;2023-06-10T14:32:48;3.22;;;3.03;;
15936;SDS011;9163;48.818;8.976;2023-06-10T14:35:16;3.22;;;3.00;;
15936;SDS011;9163;48.818;8.976;2023-06-10T14:37:43;4.22;;;3.05;;
15936;SDS011;9163;48.818;8.976;2023-06-10T14:40:10;3.38;;;3.10;;
15936;SDS011;9163;48.818;8.976;2023-06-10T14:42:38;4.70;;;3.03;;
15936;SDS011;9163;48.818;8.976;2023-06-10T14:45:05;3.35;;;3.05;;
15936;SDS011;9163;48.818;8.976;2023-06-10T14:47:36;3.20;;;3.00;;
15936;SDS011;9163;48.818;8.976;2023-06-10T14:50:04;2.83;;;2.63;;
15936;SDS011;9163;48.818;8.976;2023-06-10T14:52:31;3.67;;;3.38;;
15936;SDS011;9163;48.818;8.976;2023-06-10T14:54:59;3.40;;;3.10;;
15936;SDS011;9163;48.818;8.976;2023-06-10T14:57:26;3.38;;;3.13;;
15936;SDS011;9163;48.818;8.976;2023-06-10T14:59:53;3.88;;;3.17;;
15936;SDS011;9163;48.818;8.976;2023-06-10T15:02:21;3.47;;;3.17;;
15936;SDS011;9163;48.818;8.976;2023-06-10T15:04:50;3.85;;;3.50;;
15936;SDS011;9163;48.818;8.976;2023-06-10T15:07:17;3.63;;;3.28;;
15936;SDS011;9163;48.818;8.976;2023-06-10T15:09:44;4.15;;;3.50;;
15936;SDS011;9163;48.818;8.976;2023-06-10T15:12:11;3.78;;;3.47;;
15936;SDS011;9163;48.818;8.976;2023-06-10T15:14:39;3.58;;;3.28;;